LFPM 191700Z AUTO 29011KT 260V320 9999 FEW024/// SCT036/// BKN045/// ///TCU 11/08 Q1016

Les avions qui composent notre flotte

Avion Robin DR400-100

Avion école

(freins aux palonniers)

F-GGJG
   * tarif promotionnel appliqué pendant la formation des élèves non brevetés


F-GGJG Planche